Time;durP1;ratioP1;P1;durP2;ratioP2;P2;SDS_P1;SDS_P2;PMS_P1;PMS_P2;Temp;Humidity;BMP_temperature;BMP_pressure;BME280_temperature;BME280_humidity;BME280_pressure;Samples;Min_cycle;Max_cycle;Signal;HPM_P1;HPM_P2
2021/04/13 00:01:13;;;;;;;6.85;2.97;;;;;;;;;;5110137;28;20368;-67
2021/04/13 00:03:39;;;;;;;6.93;3.60;;;;;;;;;;5108731;28;20035;-67
2021/04/13 00:06:05;;;;;;;6.57;3.22;;;;;;;;;;5109625;28;20046;-67
2021/04/13 00:08:32;;;;;;;5.97;3.20;;;;;;;;;;5109938;28;20507;-67
2021/04/13 00:12:07;;;;;;;6.10;3.53;;;;;;;;;;5069339;28;20387;-66
2021/04/13 00:20:44;;;;;;;11.70;4.38;;;;;;;;;;5110044;27;20389;-66
2021/04/13 00:23:41;;;;;;;4.82;3.05;;;;;;;;;;5110370;27;20441;-66
2021/04/13 00:27:56;;;;;;;5.72;3.55;;;;;;;;;;5110463;27;20381;-67
2021/04/13 00:32:33;;;;;;;8.13;3.13;;;;;;;;;;5114458;27;1143314;-66
2021/04/13 00:35:15;;;;;;;9.13;3.83;;;;;;;;;;5131317;27;20023;-66
2021/04/13 00:37:41;;;;;;;8.88;4.28;;;;;;;;;;5131139;27;20088;-67
2021/04/13 00:41:29;;;;;;;9.40;4.85;;;;;;;;;;5109970;27;20426;-66
2021/04/13 00:45:32;;;;;;;13.45;6.38;;;;;;;;;;5069794;28;20409;-67
2021/04/13 00:48:00;;;;;;;9.70;5.82;;;;;;;;;;5069303;28;20400;-67
2021/04/13 00:51:06;;;;;;;9.63;4.72;;;;;;;;;;5110278;27;20392;-66
2021/04/13 00:53:34;;;;;;;9.25;5.05;;;;;;;;;;5110059;28;20035;-66
2021/04/13 00:59:48;;;;;;;159.70;71.65;;;;;;;;;;5110491;27;20381;-66
2021/04/13 01:02:18;;;;;;;61.97;28.05;;;;;;;;;;5109971;28;20031;-66
2021/04/13 01:05:03;;;;;;;16.17;9.02;;;;;;;;;;5110236;28;20136;-66
2021/04/13 01:07:34;;;;;;;9.23;5.43;;;;;;;;;;5109867;28;20024;-66
2021/04/13 01:10:14;;;;;;;9.95;5.72;;;;;;;;;;5110294;28;20026;-66
2021/04/13 01:12:41;;;;;;;9.82;4.95;;;;;;;;;;5110192;28;20024;-67
2021/04/13 01:15:54;;;;;;;7.30;4.13;;;;;;;;;;5110163;27;20442;-67
2021/04/13 01:22:26;;;;;;;6.55;3.53;;;;;;;;;;5110051;27;20381;-66
2021/04/13 01:24:53;;;;;;;7.10;3.70;;;;;;;;;;5110321;28;20533;-66
2021/04/13 01:27:20;;;;;;;7.53;4.18;;;;;;;;;;5110617;28;20039;-66
2021/04/13 01:29:47;;;;;;;7.03;3.38;;;;;;;;;;5109853;28;20043;-67
2021/04/13 01:32:14;;;;;;;8.73;5.05;;;;;;;;;;5108866;28;20028;-66
2021/04/13 01:34:44;;;;;;;5.95;3.65;;;;;;;;;;5108972;28;20078;-66
2021/04/13 01:37:25;;;;;;;9.80;5.22;;;;;;;;;;5108621;28;20028;-66
2021/04/13 01:44:44;;;;;;;8.07;4.28;;;;;;;;;;5110015;27;20442;-66
2021/04/13 01:51:20;;;;;;;9.05;5.18;;;;;;;;;;5109837;27;20388;-67
2021/04/13 01:53:48;;;;;;;9.32;4.60;;;;;;;;;;5110371;28;20081;-66
2021/04/13 01:56:33;;;;;;;7.35;4.32;;;;;;;;;;5110318;28;20046;-67
2021/04/13 01:59:02;;;;;;;7.05;3.50;;;;;;;;;;5110105;28;20028;-67
2021/04/13 02:03:58;;;;;;;8.45;4.68;;;;;;;;;;5110008;27;20389;-66
2021/04/13 02:06:40;;;;;;;7.13;4.15;;;;;;;;;;5110340;28;20027;-66
2021/04/13 02:09:14;;;;;;;6.75;3.50;;;;;;;;;;5110270;28;20380;-66
2021/04/13 02:11:42;;;;;;;10.20;4.75;;;;;;;;;;5109896;28;20024;-66
2021/04/13 02:14:12;;;;;;;6.68;4.18;;;;;;;;;;5108884;28;20020;-67
2021/04/13 02:18:23;;;;;;;6.50;3.53;;;;;;;;;;5110195;27;20381;-66
2021/04/13 02:20:51;;;;;;;7.68;4.68;;;;;;;;;;5110470;28;20024;-66
2021/04/13 02:27:14;;;;;;;11.38;5.88;;;;;;;;;;5110069;27;20782;-67
2021/04/13 02:31:58;;;;;;;8.55;4.65;;;;;;;;;;5110395;27;20450;-66
2021/04/13 02:34:29;;;;;;;6.55;4.30;;;;;;;;;;5110427;28;20035;-66
2021/04/13 02:36:57;;;;;;;9.48;4.30;;;;;;;;;;5110503;28;20058;-67
2021/04/13 02:40:28;;;;;;;12.55;5.50;;;;;;;;;;5110114;27;20908;-66
2021/04/13 02:49:04;;;;;;;8.85;5.50;;;;;;;;;;5110422;27;20429;-66
2021/04/13 02:51:32;;;;;;;10.55;5.18;;;;;;;;;;5109101;28;20027;-66
2021/04/13 02:53:59;;;;;;;7.25;4.20;;;;;;;;;;5108624;28;20530;-67
2021/04/13 02:56:33;;;;;;;7.30;4.30;;;;;;;;;;5109007;28;20051;-66
2021/04/13 02:59:19;;;;;;;6.25;3.83;;;;;;;;;;5109120;28;20024;-66
2021/04/13 03:03:32;;;;;;;6.95;3.78;;;;;;;;;;5110380;27;20424;-66
2021/04/13 03:05:59;;;;;;;8.27;4.07;;;;;;;;;;5109115;28;20036;-66
2021/04/13 03:10:05;;;;;;;9.30;4.25;;;;;;;;;;5110307;27;20390;-66
2021/04/13 03:15:26;;;;;;;9.27;4.00;;;;;;;;;;5109929;27;20434;-67
2021/04/13 03:17:54;;;;;;;6.97;4.40;;;;;;;;;;5108246;28;20030;-66
2021/04/13 03:23:48;;;;;;;6.88;4.00;;;;;;;;;;5110279;27;20406;-67
2021/04/13 03:26:17;;;;;;;8.07;5.25;;;;;;;;;;5110319;28;20019;-66
2021/04/13 03:28:46;;;;;;;9.77;5.57;;;;;;;;;;5108636;28;20031;-66
2021/04/13 03:31:15;;;;;;;11.55;6.40;;;;;;;;;;5110544;28;20020;-66
2021/04/13 03:33:41;;;;;;;10.38;6.07;;;;;;;;;;5110505;28;20166;-67
2021/04/13 03:38:01;;;;;;;16.73;6.68;;;;;;;;;;5110502;27;20377;-67
2021/04/13 03:40:29;;;;;;;13.43;8.23;;;;;;;;;;5109243;28;20020;-67
2021/04/13 03:42:59;;;;;;;15.05;8.07;;;;;;;;;;5110253;28;20023;-66
2021/04/13 03:45:27;;;;;;;14.63;7.30;;;;;;;;;;5108964;28;20468;-66
2021/04/13 03:47:54;;;;;;;14.57;8.18;;;;;;;;;;5109005;28;20077;-67
2021/04/13 03:50:24;;;;;;;15.88;7.15;;;;;;;;;;5110013;28;20039;-66
2021/04/13 03:53:10;;;;;;;13.05;6.38;;;;;;;;;;5110250;28;20019;-67
2021/04/13 03:55:37;;;;;;;11.57;6.55;;;;;;;;;;5109872;28;20016;-67
2021/04/13 03:58:19;;;;;;;8.93;4.95;;;;;;;;;;5109760;28;20039;-67
2021/04/13 04:00:45;;;;;;;8.77;5.18;;;;;;;;;;5110191;28;20047;-66
2021/04/13 04:03:12;;;;;;;7.93;5.00;;;;;;;;;;5110270;28;20419;-67
2021/04/13 04:05:46;;;;;;;9.40;5.50;;;;;;;;;;5108270;28;20020;-67
2021/04/13 04:08:50;;;;;;;10.93;5.65;;;;;;;;;;5109707;28;20099;-66
2021/04/13 04:11:17;;;;;;;9.57;5.38;;;;;;;;;;5109260;28;20091;-66
2021/04/13 04:13:50;;;;;;;5.60;3.28;;;;;;;;;;5109694;28;20028;-67
2021/04/13 04:16:16;;;;;;;;;;;;;;;;;;5109905;28;20028;-67
2021/04/13 04:18:51;;;;;;;9.57;4.68;;;;;;;;;;5109279;28;20385;-67
2021/04/13 04:21:32;;;;;;;9.00;4.68;;;;;;;;;;5109640;28;20016;-68
2021/04/13 04:26:07;;;;;;;10.20;5.20;;;;;;;;;;5109878;27;20414;-67
2021/04/13 04:28:34;;;;;;;8.18;5.03;;;;;;;;;;5108917;28;20035;-67
2021/04/13 04:31:19;;;;;;;7.50;5.13;;;;;;;;;;5108951;28;20050;-67
2021/04/13 04:33:45;;;;;;;9.57;5.30;;;;;;;;;;5108561;28;20036;-66
2021/04/13 04:37:51;;;;;;;7.80;4.28;;;;;;;;;;5110318;27;20805;-66
2021/04/13 04:40:20;;;;;;;9.82;5.43;;;;;;;;;;5110084;28;20102;-66
2021/04/13 04:42:47;;;;;;;7.35;4.40;;;;;;;;;;5110379;28;20016;-67
2021/04/13 04:46:59;;;;;;;14.10;7.88;;;;;;;;;;5109992;27;20385;-66
2021/04/13 04:50:30;;;;;;;10.45;6.97;;;;;;;;;;5110290;27;20454;-67
2021/04/13 04:52:56;;;;;;;9.15;5.75;;;;;;;;;;5109999;28;20024;-67
2021/04/13 04:55:22;;;;;;;11.35;6.65;;;;;;;;;;5110333;28;20028;-67
2021/04/13 04:58:42;;;;;;;9.77;5.43;;;;;;;;;;5110410;27;20438;-67
2021/04/13 05:01:20;;;;;;;8.80;5.40;;;;;;;;;;5110158;27;20380;-67
2021/04/13 05:03:46;;;;;;;19.17;9.30;;;;;;;;;;5110384;28;20032;-67
2021/04/13 05:06:13;;;;;;;12.60;7.85;;;;;;;;;;5110130;28;20574;-66
2021/04/13 05:10:22;;;;;;;9.18;5.80;;;;;;;;;;5110483;27;20385;-68
2021/04/13 05:12:48;;;;;;;11.68;6.20;;;;;;;;;;5110388;28;20027;-68
2021/04/13 05:15:15;;;;;;;11.80;6.40;;;;;;;;;;5109998;28;20095;-68
2021/04/13 05:17:41;;;;;;;12.27;7.60;;;;;;;;;;5110304;28;20513;-68
2021/04/13 05:21:44;;;;;;;10.52;5.70;;;;;;;;;;5110272;27;20377;-66
2021/04/13 05:24:10;;;;;;;8.40;5.30;;;;;;;;;;5109003;28;20418;-66
2021/04/13 05:29:27;;;;;;;15.05;8.88;;;;;;;;;;5065852;28;20384;-68
2021/04/13 05:31:54;;;;;;;12.93;8.32;;;;;;;;;;5067667;28;20025;-69
2021/04/13 05:34:20;;;;;;;13.63;6.93;;;;;;;;;;5064184;28;20063;-66
2021/04/13 05:36:47;;;;;;;13.73;6.90;;;;;;;;;;5067402;28;20053;-69
2021/04/13 05:42:22;;;;;;;17.48;10.45;;;;;;;;;;5109681;27;20458;-70
2021/04/13 05:44:50;;;;;;;15.27;9.27;;;;;;;;;;5112710;28;20080;-68
2021/04/13 05:49:22;;;;;;;19.73;11.23;;;;;;;;;;5108577;27;20389;-69
2021/04/13 05:51:48;;;;;;;10.77;6.50;;;;;;;;;;5110073;28;20055;-70
2021/04/13 05:56:30;;;;;;;14.98;10.45;;;;;;;;;;5069009;28;20360;-71
2021/04/13 06:02:48;;;;;;;13.63;6.78;;;;;;;;;;5108326;27;20450;-68
2021/04/13 06:05:15;;;;;;;12.13;6.78;;;;;;;;;;5109270;28;20035;-70
2021/04/13 06:07:41;;;;;;;11.43;5.78;;;;;;;;;;5109789;28;20012;-69
2021/04/13 06:11:54;;;;;;;8.15;5.38;;;;;;;;;;5109191;27;20385;-69
2021/04/13 06:14:22;;;;;;;13.18;8.45;;;;;;;;;;5108620;28;20115;-71
2021/04/13 06:16:50;;;;;;;17.45;11.00;;;;;;;;;;5109832;28;20028;-71
2021/04/13 06:19:16;;;;;;;16.08;8.98;;;;;;;;;;5098107;28;20016;-70
2021/04/13 06:21:42;;;;;;;12.43;7.80;;;;;;;;;;5097171;28;20484;-71
2021/04/13 06:24:10;;;;;;;11.25;7.15;;;;;;;;;;5109364;28;20032;-70
2021/04/13 06:27:28;;;;;;;14.65;9.52;;;;;;;;;;5068011;28;20387;-68
2021/04/13 06:31:35;;;;;;;18.90;9.43;;;;;;;;;;5127182;27;20388;-66
2021/04/13 06:34:01;;;;;;;18.70;11.32;;;;;;;;;;5128222;28;20109;-70
2021/04/13 06:36:28;;;;;;;18.75;11.00;;;;;;;;;;5130098;28;20471;-68
2021/04/13 06:44:02;;;;;;;15.00;8.48;;;;;;;;;;5099285;27;20780;-69
2021/04/13 06:46:36;;;;;;;12.55;6.93;;;;;;;;;;5101760;28;20131;-70
2021/04/13 06:49:20;;;;;;;13.05;6.88;;;;;;;;;;5109393;28;20102;-68
2021/04/13 06:52:11;;;;;;;14.43;9.52;;;;;;;;;;5067617;28;20468;-70
2021/04/13 07:00:26;;;;;;;13.52;6.97;;;;;;;;;;5068121;28;20400;-66
2021/04/13 07:02:55;;;;;;;18.20;13.13;;;;;;;;;;5068937;28;20021;-69
2021/04/13 07:08:59;;;;;;;13.55;7.85;;;;;;;;;;5084541;27;20391;-69
2021/04/13 07:11:45;;;;;;;17.35;10.10;;;;;;;;;;5069550;28;20033;-70
2021/04/13 07:16:25;;;;;;;13.65;7.88;;;;;;;;;;5065172;28;20392;-68
2021/04/13 07:19:01;;;;;;;8.98;5.32;;;;;;;;;;5068723;28;20028;-67
2021/04/13 07:21:48;;;;;;;12.07;7.70;;;;;;;;;;5066416;28;20036;-68
2021/04/13 07:24:21;;;;;;;10.80;6.85;;;;;;;;;;5067019;28;20028;-67
2021/04/13 07:27:07;;;;;;;13.32;8.02;;;;;;;;;;5069383;28;20481;-66
2021/04/13 07:29:39;;;;;;;14.77;7.85;;;;;;;;;;5063543;28;20025;-68
2021/04/13 07:32:09;;;;;;;10.55;6.57;;;;;;;;;;5064083;28;20025;-67
2021/04/13 07:34:36;;;;;;;14.80;7.40;;;;;;;;;;5052822;28;20098;-67
2021/04/13 07:37:05;;;;;;;8.85;5.60;;;;;;;;;;5067290;28;20045;-68
2021/04/13 07:39:31;;;;;;;9.52;5.68;;;;;;;;;;5067215;28;20060;-68
2021/04/13 07:42:04;;;;;;;9.43;5.40;;;;;;;;;;5065510;28;20603;-68
2021/04/13 07:44:43;;;;;;;14.00;9.13;;;;;;;;;;5060785;28;20057;-68
2021/04/13 07:47:26;;;;;;;9.88;5.95;;;;;;;;;;5067315;28;20146;-67
2021/04/13 07:49:54;;;;;;;11.13;5.97;;;;;;;;;;5066920;28;20025;-67
2021/04/13 07:52:55;;;;;;;12.13;6.45;;;;;;;;;;5051580;28;20029;-68
2021/04/13 07:55:28;;;;;;;17.67;9.10;;;;;;;;;;5067735;28;20047;-67
2021/04/13 07:58:03;;;;;;;14.10;9.20;;;;;;;;;;5067152;28;20040;-70
2021/04/13 08:00:29;;;;;;;12.43;6.75;;;;;;;;;;5039475;28;20075;-69
2021/04/13 08:03:08;;;;;;;13.50;6.53;;;;;;;;;;5061622;28;20158;-67
2021/04/13 08:05:46;;;;;;;13.40;6.50;;;;;;;;;;5049028;28;20020;-67
2021/04/13 08:08:32;;;;;;;12.57;7.50;;;;;;;;;;5062516;28;20032;-68
2021/04/13 08:11:10;;;;;;;9.77;6.53;;;;;;;;;;5060234;28;20052;-67
2021/04/13 08:15:12;;;;;;;9.32;6.20;;;;;;;;;;5109960;27;20941;-67
2021/04/13 08:17:56;;;;;;;9.85;5.65;;;;;;;;;;5106978;28;20081;-67
2021/04/13 08:23:42;;;;;;;9.43;5.80;;;;;;;;;;5063765;28;20431;-66
2021/04/13 08:26:15;;;;;;;8.98;4.63;;;;;;;;;;5061688;28;20024;-67
2021/04/13 08:28:55;;;;;;;8.20;4.72;;;;;;;;;;5065574;28;20472;-67
2021/04/13 08:34:15;;;;;;;;;;;;;;;;;;5056524;28;20409;-67
2021/04/13 08:37:42;;;;;;;10.65;5.65;;;;;;;;;;5046120;28;20454;-68
2021/04/13 08:41:06;;;;;;;10.35;5.25;;;;;;;;;;5107695;27;20389;-67
2021/04/13 08:43:40;;;;;;;10.80;5.95;;;;;;;;;;5089385;28;20614;-67
2021/04/13 08:46:13;;;;;;;13.30;5.53;;;;;;;;;;5108108;28;20042;-66
2021/04/13 08:48:40;;;;;;;12.30;6.60;;;;;;;;;;5109567;28;20051;-67
2021/04/13 08:51:14;;;;;;;11.05;5.55;;;;;;;;;;5109610;28;20032;-66
2021/04/13 08:54:39;;;;;;;9.30;4.78;;;;;;;;;;5109995;27;20904;-65
2021/04/13 08:59:04;;;;;;;13.68;4.72;;;;;;;;;;5048992;28;20446;-67
2021/04/13 09:01:39;;;;;;;12.02;5.63;;;;;;;;;;5049566;28;20029;-66
2021/04/13 09:04:09;;;;;;;50.08;24.33;;;;;;;;;;5049429;28;20108;-68
2021/04/13 09:12:30;;;;;;;23.15;11.38;;;;;;;;;;5109775;27;20380;-68
2021/04/13 09:15:02;;;;;;;22.90;10.75;;;;;;;;;;5109496;28;20069;-68
2021/04/13 09:18:41;;;;;;;10.55;5.20;;;;;;;;;;5049327;28;20392;-69
2021/04/13 09:21:30;;;;;;;13.00;6.15;;;;;;;;;;5047914;28;20116;-68
2021/04/13 09:24:19;;;;;;;22.33;10.32;;;;;;;;;;5049757;28;20021;-67
2021/04/13 09:26:57;;;;;;;16.38;7.78;;;;;;;;;;5049550;28;20053;-68
2021/04/13 09:29:31;;;;;;;19.83;10.88;;;;;;;;;;5049401;28;20527;-67
2021/04/13 09:31:58;;;;;;;15.77;7.88;;;;;;;;;;5049378;28;20037;-67
2021/04/13 09:34:35;;;;;;;24.92;12.05;;;;;;;;;;5047581;28;20327;-69
2021/04/13 09:37:30;;;;;;;19.92;12.02;;;;;;;;;;5110059;27;20747;-67
2021/04/13 09:41:37;;;;;;;13.65;7.35;;;;;;;;;;5048879;28;20447;-68
2021/04/13 09:44:18;;;;;;;8.35;4.55;;;;;;;;;;5047776;28;20397;-67
2021/04/13 09:47:17;;;;;;;13.05;5.95;;;;;;;;;;5029366;28;20097;-69
2021/04/13 09:50:05;;;;;;;11.63;4.95;;;;;;;;;;5001650;28;20037;-68
2021/04/13 09:54:21;;;;;;;6.97;3.83;;;;;;;;;;5097456;27;20369;-68
2021/04/13 09:57:06;;;;;;;15.60;5.75;;;;;;;;;;5086785;28;20067;-67
2021/04/13 09:59:41;;;;;;;9.63;4.30;;;;;;;;;;5089211;28;20021;-67
2021/04/13 10:02:28;;;;;;;7.55;4.13;;;;;;;;;;5085067;28;20020;-66
2021/04/13 10:04:56;;;;;;;7.25;3.13;;;;;;;;;;5086764;28;20556;-67
2021/04/13 10:07:33;;;;;;;10.48;5.53;;;;;;;;;;5084913;28;20021;-67
2021/04/13 10:10:02;;;;;;;9.98;5.90;;;;;;;;;;5086018;28;20024;-68
2021/04/13 10:12:47;;;;;;;13.57;4.85;;;;;;;;;;5088299;28;20032;-67
2021/04/13 10:15:20;;;;;;;11.43;6.20;;;;;;;;;;5087119;28;20020;-66
2021/04/13 10:17:52;;;;;;;10.38;5.45;;;;;;;;;;5088126;28;20510;-67
2021/04/13 10:20:30;;;;;;;10.77;5.20;;;;;;;;;;5087156;28;20056;-66
2021/04/13 10:27:10;;;;;;;8.75;3.97;;;;;;;;;;5109649;27;20442;-69
2021/04/13 10:33:03;;;;;;;7.65;3.88;;;;;;;;;;5160798;27;20398;-67
2021/04/13 10:35:48;;;;;;;6.75;3.67;;;;;;;;;;5141896;27;20481;-68
2021/04/13 10:38:33;;;;;;;9.30;4.45;;;;;;;;;;5129382;28;20098;-67
2021/04/13 10:40:59;;;;;;;10.05;5.38;;;;;;;;;;5129715;28;20045;-66
2021/04/13 10:43:54;;;;;;;7.07;3.33;;;;;;;;;;5135813;27;20378;-66
2021/04/13 10:46:20;;;;;;;9.43;3.65;;;;;;;;;;5148522;27;20037;-67
2021/04/13 10:48:48;;;;;;;15.50;7.00;;;;;;;;;;5150247;27;20047;-66
2021/04/13 10:51:33;;;;;;;10.95;5.03;;;;;;;;;;5150212;27;20118;-68
2021/04/13 10:53:59;;;;;;;9.93;4.65;;;;;;;;;;5150689;27;20092;-67
2021/04/13 10:56:28;;;;;;;9.55;4.53;;;;;;;;;;5150427;27;20014;-67
2021/04/13 10:59:14;;;;;;;7.90;3.88;;;;;;;;;;5149599;27;20497;-67
2021/04/13 11:01:40;;;;;;;22.30;14.70;;;;;;;;;;5150170;27;20046;-67
2021/04/13 11:04:42;;;;;;;19.90;8.57;;;;;;;;;;5148708;27;20019;-65
2021/04/13 11:07:26;;;;;;;10.30;5.20;;;;;;;;;;5042505;28;20087;-66
2021/04/13 11:10:10;;;;;;;15.80;7.68;;;;;;;;;;5139260;27;20027;-67
2021/04/13 11:12:54;;;;;;;7.90;4.18;;;;;;;;;;5147417;27;20106;-66
2021/04/13 11:15:20;;;;;;;8.95;4.68;;;;;;;;;;5148290;27;20562;-66
2021/04/13 11:17:51;;;;;;;9.50;4.60;;;;;;;;;;5148131;27;20497;-66
2021/04/13 11:20:17;;;;;;;18.88;10.68;;;;;;;;;;5147550;27;20358;-66
2021/04/13 11:22:47;;;;;;;40.17;27.67;;;;;;;;;;5148841;27;20030;-66
2021/04/13 11:25:31;;;;;;;20.48;12.85;;;;;;;;;;5150802;27;20019;-66
2021/04/13 11:28:16;;;;;;;16.67;9.80;;;;;;;;;;5149867;27;20383;-65
2021/04/13 11:31:03;;;;;;;10.30;4.25;;;;;;;;;;5150326;27;20046;-68
2021/04/13 11:33:36;;;;;;;14.18;6.85;;;;;;;;;;5097840;27;20459;-66
2021/04/13 11:36:34;;;;;;;14.13;9.95;;;;;;;;;;5110161;27;20380;-64
2021/04/13 11:40:02;;;;;;;14.98;8.05;;;;;;;;;;5110314;27;20381;-66
2021/04/13 11:42:31;;;;;;;12.20;6.30;;;;;;;;;;5110021;28;20103;-66
2021/04/13 11:45:00;;;;;;;8.48;3.47;;;;;;;;;;5109270;28;20024;-66
2021/04/13 11:47:32;;;;;;;8.93;5.30;;;;;;;;;;5108287;28;20030;-66
2021/04/13 11:50:27;;;;;;;8.60;4.40;;;;;;;;;;5045102;27;20445;-66
2021/04/13 11:53:36;;;;;;;11.45;5.80;;;;;;;;;;5109767;27;20390;-66
2021/04/13 11:56:03;;;;;;;10.35;5.03;;;;;;;;;;5109992;28;20051;-66
2021/04/13 11:58:34;;;;;;;8.70;4.45;;;;;;;;;;5110353;28;20027;-66
2021/04/13 12:01:13;;;;;;;7.70;3.67;;;;;;;;;;5109114;27;20438;-66
2021/04/13 12:05:46;;;;;;;8.75;3.78;;;;;;;;;;5110768;27;20437;-65
2021/04/13 12:08:30;;;;;;;10.73;5.35;;;;;;;;;;5110471;28;20034;-65
2021/04/13 12:10:59;;;;;;;9.35;5.07;;;;;;;;;;5109979;28;20060;-66
2021/04/13 12:13:51;;;;;;;11.00;5.55;;;;;;;;;;5110455;27;20410;-65
2021/04/13 12:16:43;;;;;;;9.20;3.72;;;;;;;;;;5110607;28;20030;-66
2021/04/13 12:21:21;;;;;;;8.02;4.50;;;;;;;;;;5110452;27;20430;-67
2021/04/13 12:23:52;;;;;;;10.18;3.80;;;;;;;;;;5099419;28;20040;-66
2021/04/13 12:26:35;;;;;;;9.73;4.30;;;;;;;;;;5110478;28;20018;-66
2021/04/13 12:29:21;;;;;;;7.47;4.10;;;;;;;;;;5110357;28;20031;-66
2021/04/13 12:32:06;;;;;;;7.45;3.55;;;;;;;;;;5109828;28;20026;-66
2021/04/13 12:34:44;;;;;;;7.82;3.65;;;;;;;;;;5110268;28;20008;-65
2021/04/13 12:38:31;;;;;;;8.57;3.63;;;;;;;;;;5109908;27;20381;-66
2021/04/13 12:41:16;;;;;;;8.18;3.97;;;;;;;;;;5110404;28;20031;-65
2021/04/13 12:45:19;;;;;;;7.88;4.15;;;;;;;;;;5110421;27;20377;-66
2021/04/13 12:48:08;;;;;;;11.02;4.40;;;;;;;;;;5110384;28;20042;-66
2021/04/13 12:50:36;;;;;;;8.50;4.82;;;;;;;;;;5102199;28;20032;-66
2021/04/13 12:54:15;;;;;;;22.33;10.90;;;;;;;;;;5069895;27;20445;-67
2021/04/13 12:56:41;;;;;;;14.35;8.20;;;;;;;;;;5069833;28;20055;-66
2021/04/13 12:59:12;;;;;;;15.57;10.63;;;;;;;;;;5069426;28;20431;-66
2021/04/13 13:03:22;;;;;;;33.38;14.65;;;;;;;;;;5110453;27;20429;-66
2021/04/13 13:05:49;;;;;;;13.32;4.88;;;;;;;;;;5110205;28;20034;-66
2021/04/13 13:09:39;;;;;;;23.00;10.25;;;;;;;;;;5049801;28;20892;-67
2021/04/13 13:12:09;;;;;;;10.75;4.68;;;;;;;;;;5049521;28;20039;-65
2021/04/13 13:16:26;;;;;;;14.60;6.82;;;;;;;;;;5049623;28;20687;-65
2021/04/13 13:18:55;;;;;;;19.60;7.50;;;;;;;;;;5049719;28;20025;-65
2021/04/13 13:21:23;;;;;;;13.02;6.75;;;;;;;;;;5049715;28;20049;-66
2021/04/13 13:23:51;;;;;;;17.40;7.32;;;;;;;;;;5049647;28;20496;-66
2021/04/13 13:26:23;;;;;;;12.80;5.05;;;;;;;;;;5049558;28;20067;-65
2021/04/13 13:28:49;;;;;;;20.63;9.83;;;;;;;;;;5049710;28;20385;-66
2021/04/13 13:31:17;;;;;;;11.05;5.45;;;;;;;;;;5049610;28;20079;-66
2021/04/13 13:33:44;;;;;;;8.57;4.70;;;;;;;;;;5048851;28;20025;-66
2021/04/13 13:38:11;;;;;;;9.68;4.53;;;;;;;;;;5110443;27;20469;-66
2021/04/13 13:40:40;;;;;;;7.22;4.00;;;;;;;;;;5110103;28;20024;-66
2021/04/13 13:43:07;;;;;;;8.07;3.40;;;;;;;;;;5110677;28;20058;-66
2021/04/13 13:45:41;;;;;;;7.43;3.92;;;;;;;;;;5110580;28;20070;-65
2021/04/13 13:48:22;;;;;;;8.02;3.63;;;;;;;;;;5109911;28;20484;-67
2021/04/13 13:50:49;;;;;;;9.52;4.00;;;;;;;;;;5110307;28;20024;-66
2021/04/13 13:53:17;;;;;;;7.38;3.20;;;;;;;;;;5108885;28;20031;-66
2021/04/13 13:55:54;;;;;;;9.18;4.00;;;;;;;;;;5109631;28;20031;-66
2021/04/13 13:58:20;;;;;;;7.32;3.78;;;;;;;;;;5110089;28;20093;-66
2021/04/13 14:00:47;;;;;;;8.38;3.47;;;;;;;;;;5109849;28;20016;-66
2021/04/13 14:03:21;;;;;;;11.60;4.57;;;;;;;;;;5108462;28;20046;-66
2021/04/13 14:05:57;;;;;;;11.23;5.20;;;;;;;;;;5110130;28;20053;-66
2021/04/13 14:08:37;;;;;;;10.50;5.50;;;;;;;;;;5109553;28;20069;-66
2021/04/13 14:11:20;;;;;;;9.73;4.90;;;;;;;;;;5108305;28;20062;-64
2021/04/13 14:14:00;;;;;;;27.88;18.90;;;;;;;;;;5109750;28;20030;-67
2021/04/13 14:16:38;;;;;;;33.60;17.02;;;;;;;;;;5109423;28;20482;-68
2021/04/13 14:19:16;;;;;;;24.58;13.70;;;;;;;;;;5109782;28;20028;-64
2021/04/13 14:21:43;;;;;;;21.30;12.57;;;;;;;;;;5108384;28;20071;-68
2021/04/13 14:24:29;;;;;;;14.13;7.07;;;;;;;;;;5109377;28;20373;-67
2021/04/13 14:27:14;;;;;;;14.68;5.97;;;;;;;;;;5098950;28;20040;-66
2021/04/13 14:29:41;;;;;;;8.43;3.53;;;;;;;;;;5109201;28;20471;-68
2021/04/13 14:34:06;;;;;;;10.00;4.75;;;;;;;;;;5049810;28;20393;-65
2021/04/13 14:36:32;;;;;;;12.57;6.20;;;;;;;;;;5049525;28;20029;-65
2021/04/13 14:38:58;;;;;;;10.10;4.10;;;;;;;;;;5049838;28;20087;-66
2021/04/13 14:41:24;;;;;;;8.30;3.42;;;;;;;;;;5049906;28;20029;-66
2021/04/13 14:43:51;;;;;;;8.13;3.17;;;;;;;;;;5049506;28;20385;-66
2021/04/13 14:46:17;;;;;;;8.45;3.75;;;;;;;;;;5049848;28;20025;-65
2021/04/13 14:48:43;;;;;;;14.80;9.00;;;;;;;;;;5049574;28;20029;-65
2021/04/13 14:51:09;;;;;;;10.02;5.43;;;;;;;;;;5049188;28;20026;-66
2021/04/13 14:53:38;;;;;;;11.07;4.40;;;;;;;;;;5049471;28;20072;-66
2021/04/13 14:56:05;;;;;;;14.48;7.03;;;;;;;;;;5049602;28;20569;-66
2021/04/13 14:58:31;;;;;;;8.63;4.30;;;;;;;;;;5049115;28;20025;-66
2021/04/13 15:00:57;;;;;;;9.63;5.20;;;;;;;;;;5049353;28;20029;-66
2021/04/13 15:03:23;;;;;;;11.35;5.97;;;;;;;;;;5049538;28;20096;-65
2021/04/13 15:05:49;;;;;;;9.85;4.65;;;;;;;;;;5049167;28;20466;-66
2021/04/13 15:08:20;;;;;;;12.88;7.95;;;;;;;;;;5049336;28;20609;-66
2021/04/13 15:10:47;;;;;;;12.35;8.48;;;;;;;;;;5049449;28;20032;-66
2021/04/13 15:13:13;;;;;;;11.10;5.05;;;;;;;;;;5048643;28;20525;-65
2021/04/13 15:15:39;;;;;;;10.93;5.90;;;;;;;;;;5049100;28;20024;-66
2021/04/13 15:18:09;;;;;;;10.85;6.10;;;;;;;;;;5049088;28;20025;-66
2021/04/13 15:20:36;;;;;;;16.55;6.60;;;;;;;;;;5048612;28;20091;-65
2021/04/13 15:23:03;;;;;;;13.50;6.57;;;;;;;;;;5049157;28;20027;-66
2021/04/13 15:25:29;;;;;;;10.43;5.20;;;;;;;;;;5049229;28;20385;-65
2021/04/13 15:27:56;;;;;;;12.70;6.22;;;;;;;;;;5047289;28;20420;-66
2021/04/13 15:30:50;;;;;;;8.98;4.85;;;;;;;;;;5110206;27;20381;-66
2021/04/13 15:33:19;;;;;;;9.52;5.40;;;;;;;;;;5109870;28;20031;-66
2021/04/13 15:37:43;;;;;;;7.85;4.60;;;;;;;;;;5130823;27;20387;-66
2021/04/13 15:40:10;;;;;;;10.38;5.40;;;;;;;;;;5130557;28;20034;-66
2021/04/13 15:42:39;;;;;;;13.15;7.07;;;;;;;;;;5130917;27;20058;-66
2021/04/13 15:45:05;;;;;;;11.00;5.60;;;;;;;;;;5131038;27;20137;-66
2021/04/13 15:47:32;;;;;;;12.20;5.88;;;;;;;;;;5130501;27;20018;-66
2021/04/13 15:50:09;;;;;;;10.23;6.47;;;;;;;;;;5110460;27;20411;-67
2021/04/13 15:52:35;;;;;;;10.40;5.88;;;;;;;;;;5110410;28;20036;-67
2021/04/13 15:55:02;;;;;;;10.88;5.47;;;;;;;;;;5110007;28;20030;-68
2021/04/13 15:57:29;;;;;;;12.05;6.57;;;;;;;;;;5110324;28;20020;-67
2021/04/13 15:59:55;;;;;;;16.13;8.43;;;;;;;;;;5110253;28;20522;-65
2021/04/13 16:02:21;;;;;;;13.55;7.05;;;;;;;;;;5109745;28;20107;-65
2021/04/13 16:04:48;;;;;;;10.88;6.63;;;;;;;;;;5110299;28;20024;-65
2021/04/13 16:07:14;;;;;;;14.95;8.57;;;;;;;;;;5110289;28;20043;-65
2021/04/13 16:09:40;;;;;;;21.63;11.95;;;;;;;;;;5109668;28;20035;-67
2021/04/13 16:12:07;;;;;;;14.80;7.57;;;;;;;;;;5110048;28;20028;-66
2021/04/13 16:14:33;;;;;;;13.50;7.72;;;;;;;;;;5110010;28;20098;-66
2021/04/13 16:16:59;;;;;;;12.10;6.05;;;;;;;;;;5108334;28;20511;-66
2021/04/13 16:19:25;;;;;;;11.88;6.05;;;;;;;;;;5108612;28;20035;-68
2021/04/13 16:21:51;;;;;;;13.88;7.97;;;;;;;;;;5109627;28;20376;-66
2021/04/13 16:24:18;;;;;;;10.90;7.50;;;;;;;;;;5110061;28;20037;-67
2021/04/13 16:26:45;;;;;;;12.07;7.57;;;;;;;;;;5109915;28;20024;-66
2021/04/13 16:29:12;;;;;;;14.23;7.72;;;;;;;;;;5109216;28;20371;-66
2021/04/13 16:31:44;;;;;;;12.02;7.15;;;;;;;;;;5109678;28;20020;-66
2021/04/13 16:34:14;;;;;;;15.10;8.48;;;;;;;;;;5109599;28;20038;-66
2021/04/13 16:38:28;;;;;;;12.70;6.20;;;;;;;;;;5172310;27;20121;-66
2021/04/13 16:43:02;;;;;;;11.32;5.63;;;;;;;;;;5110086;27;20388;-66
2021/04/13 16:45:29;;;;;;;12.88;6.45;;;;;;;;;;5110596;28;20024;-66
2021/04/13 16:48:00;;;;;;;19.27;10.02;;;;;;;;;;5110402;28;20170;-66
2021/04/13 16:51:13;;;;;;;16.42;7.85;;;;;;;;;;5109937;27;20900;-68
2021/04/13 16:53:39;;;;;;;15.15;9.25;;;;;;;;;;5110431;28;20080;-68
2021/04/13 16:59:17;;;;;;;13.18;7.55;;;;;;;;;;5110050;27;20440;-68
2021/04/13 17:06:50;;;;;;;15.98;7.95;;;;;;;;;;5111046;27;1209379;-65
2021/04/13 17:09:19;;;;;;;18.05;10.50;;;;;;;;;;5128941;28;20039;-65
2021/04/13 17:11:53;;;;;;;20.95;11.27;;;;;;;;;;5128445;28;20504;-65
2021/04/13 17:14:28;;;;;;;18.60;8.63;;;;;;;;;;5128779;28;20031;-65
2021/04/13 17:17:52;;;;;;;14.95;8.45;;;;;;;;;;5047761;28;20393;-66
2021/04/13 17:20:25;;;;;;;16.23;8.73;;;;;;;;;;5048510;28;20423;-66
2021/04/13 17:22:53;;;;;;;14.98;7.80;;;;;;;;;;5049213;28;20029;-66
2021/04/13 17:28:56;;;;;;;18.27;10.85;;;;;;;;;;5110484;27;20430;-66
2021/04/13 17:31:25;;;;;;;22.10;14.73;;;;;;;;;;5109120;28;20085;-68
2021/04/13 17:34:07;;;;;;;23.73;13.63;;;;;;;;;;5048257;28;20465;-67
2021/04/13 17:36:38;;;;;;;16.75;10.80;;;;;;;;;;5049830;28;20040;-68
2021/04/13 17:39:08;;;;;;;15.25;8.43;;;;;;;;;;5049942;28;20052;-68
2021/04/13 17:41:45;;;;;;;17.58;8.88;;;;;;;;;;5049582;28;20465;-66
2021/04/13 17:46:53;;;;;;;24.23;12.98;;;;;;;;;;5110095;27;20162;-67
2021/04/13 17:49:20;;;;;;;41.08;24.65;;;;;;;;;;5090026;28;20388;-67
2021/04/13 17:51:48;;;;;;;34.58;19.60;;;;;;;;;;5089985;28;20021;-67
2021/04/13 17:55:57;;;;;;;23.83;13.80;;;;;;;;;;5049867;28;20389;-66
2021/04/13 17:58:23;;;;;;;16.27;10.18;;;;;;;;;;5049865;28;20113;-66
2021/04/13 18:02:54;;;;;;;16.95;9.05;;;;;;;;;;5110610;27;20381;-67